Nearby METAR Reports

 

CYYY - Mont Joli Airpor, Quebec, Canada
Distance from station: NE 44km
Mise à jour: Mon, 16-Jul-2018 12:00am EDT
Few Clouds
Few Clouds
 Wind from SSE
Vent: SSE 13 km/h
Température: 18°C
Point de rosée: 17°C
Humidité: 94%
Baromètre: 1013.2 hPa
Clouds: Few Clouds
Visibility: 24 km
Cloud details: Few Clouds 6706 m
2018/07/16 04:00 CYYY 160400Z 16007KT 15SM FEW220 18/17 A2992 RMK CI2 SLP134 DENSITY ALT 700FT
CWZS - Amqui, Quebec, Canada
Distance from station: E 94km
Mise à jour: Mon, 16-Jul-2018 12:00am EDT

 Wind from SSE
Vent: SSE 4 km/h
Température: 17°C
Point de rosée: 15°C
Humidité: 88%
2018/07/16 04:00 CWZS 160400Z AUTO 15002KT 17/15 RMK AO1 SLP142 T01650151 51002
 
CWQO - Ile Bicquette, Quebec, Canada
Distance from station: ONO 15km
Mise à jour: Mon, 16-Jul-2018 12:00am EDT

 Wind from O
Vent: O 6 km/h
Température: 11°C
Point de rosée: 10°C
Humidité: 94%
2018/07/16 04:00 CWQO 160400Z AUTO 26003KT 11/10 RMK AO1 T01050101
CWNH - Riviere Du Loup, Quebec, Canada
Distance from station: SO 90km
Mise à jour: Mon, 16-Jul-2018 12:00am EDT

 Wind from S
Vent: S 6 km/h
Température: 19°C
Point de rosée: 16°C
Humidité: 83%
2018/07/16 04:00 CWNH 160400Z AUTO 19003KT 19/16 RMK AO1 SLP142 T01900157 53001
 
CWAF - Ile Rouge(Maps), Quebec, Canada
Distance from station: OSO 70km
Mise à jour: Mon, 16-Jul-2018 12:00am EDT

 Wind from calm
Vent: calme
Température: 10°C
Point de rosée: 9°C
Humidité: 94%
2018/07/16 04:00 CWAF 160400Z AUTO 00000KT 10/09 RMK AO1 T00970094
CYBC - Baie Comeau Airp, Quebec, Canada
Distance from station: NNE 90km
Mise à jour: Mon, 16-Jul-2018 12:22am EDT
Fog, couvert
Fog, couvert
 Wind from calm
Vent: calme
Température: 12°C
Point de rosée: 12°C
Humidité: 100%
Baromètre: 1012.9 hPa
Résumé: Fog
Clouds: couvert
Visibility: 5 km
Cloud details: couvert 61 m
2018/07/16 04:22 CYBC 160422Z AUTO 00000KT 3/8SM FG VV002 12/12 A2991 RMK SLP132